Terminal Aerodrome Forecast
Issued by NWS Greer, SC

Home | Current Version | Previous Version | Text Only | Print | Product List | Glossary On
Versions: 1 2 3 4 5 6 7 8 9 10 11 12 13 14 15 16 17 18 19 20 21 22 23 24 25 26 27 28 29 30 31 32 33 34 35 36 37 38 39 40 41 42 43 44 45 46 47 48 49 50
000
FTUS42 KGSP 040810 AAA
TAFAVL
TAF AMD
KAVL 040810Z 0408/0506 21003KT P6SM VCSH BKN070
     FM040900 22005KT P6SM -SHRA BKN050
     FM041100 22006KT 4SM -SHRA VCTS BKN024CB
     FM041500 22009KT P6SM -SHRA VCTS OVC022CB
     FM041800 25008KT P6SM -SHRA VCTS OVC050CB
     FM050200 00000KT P6SM BKN080 OVC250=

USA.gov is the U.S. government's official web portal to all federal, state and local government web resources and services.